Time,TemperatureF,DewpointF,PressureIn,WindDirection,WindDirectionDegrees,WindSpeedMPH,WindSpeedGustMPH,Humidity,HourlyPrecipIn,Conditions,Clouds,dailyrainin,SoftwareType,DateUTC
2013-03-23 00:02:00,49.0,25.0,29.69,WSW,243,10.0,17.0,38,0.00,,,0.00,,2013-03-23 06:02:00,
2013-03-23 00:12:00,49.0,25.0,29.69,WSW,243,10.0,17.0,38,0.00,,,0.00,,2013-03-23 06:12:00,
2013-03-23 00:22:00,49.0,25.0,29.69,SW,225,9.0,14.0,39,0.00,,,0.00,,2013-03-23 06:22:00,
2013-03-23 00:32:00,49.0,25.0,29.69,SW,225,9.0,14.0,39,0.00,,,0.00,,2013-03-23 06:32:00,
2013-03-23 00:42:00,49.0,25.0,29.69,SW,225,9.0,14.0,39,0.00,,,0.00,,2013-03-23 06:42:00,
2013-03-23 00:52:00,49.0,25.0,29.68,WSW,248,9.0,14.0,38,0.00,,,0.00,,2013-03-23 06:52:00,
2013-03-23 01:02:00,49.0,25.0,29.68,WSW,245,12.0,14.0,38,0.00,,,0.00,,2013-03-23 07:02:00,
2013-03-23 01:12:00,49.0,25.0,29.68,WSW,245,12.0,14.0,38,0.00,,,0.00,,2013-03-23 07:12:00,
2013-03-23 01:22:00,48.0,23.0,29.68,WSW,239,7.0,12.0,37,0.00,,,0.00,,2013-03-23 07:22:00,
2013-03-23 01:32:00,48.0,24.0,29.68,SSW,202,6.0,9.0,38,0.00,,,0.00,,2013-03-23 07:32:00,
2013-03-23 01:42:00,48.0,24.0,29.68,SSW,202,6.0,9.0,38,0.00,,,0.00,,2013-03-23 07:42:00,
2013-03-23 01:52:00,47.0,23.0,29.68,WSW,239,6.0,9.0,39,0.00,,,0.00,,2013-03-23 07:52:00,
2013-03-23 02:02:00,46.0,23.0,29.69,WSW,240,5.0,9.0,40,0.00,,,0.00,,2013-03-23 08:02:00,
2013-03-23 02:12:00,46.0,23.0,29.69,WSW,240,5.0,9.0,40,0.00,,,0.00,,2013-03-23 08:12:00,
2013-03-23 02:22:00,45.0,24.0,29.69,SW,231,6.0,9.0,44,0.00,,,0.00,,2013-03-23 08:22:00,
2013-03-23 02:32:00,45.0,24.0,29.69,SW,231,6.0,9.0,44,0.00,,,0.00,,2013-03-23 08:32:00,
2013-03-23 02:42:00,45.0,24.0,29.69,SW,231,6.0,9.0,44,0.00,,,0.00,,2013-03-23 08:42:00,
2013-03-23 02:52:00,44.0,23.0,29.69,SW,225,6.0,8.0,43,0.00,,,0.00,,2013-03-23 08:52:00,
2013-03-23 03:02:00,44.0,23.0,29.69,SW,225,6.0,8.0,43,0.00,,,0.00,,2013-03-23 09:02:00,
2013-03-23 03:12:00,44.0,23.0,29.69,SW,225,6.0,8.0,43,0.00,,,0.00,,2013-03-23 09:12:00,
2013-03-23 03:22:00,45.0,18.0,29.69,WSW,237,6.0,8.0,33,0.00,,,0.00,,2013-03-23 09:22:00,
2013-03-23 03:33:00,44.0,17.0,29.69,SW,225,7.0,8.0,33,0.00,,,0.00,,2013-03-23 09:33:00,
2013-03-23 03:43:00,44.0,17.0,29.69,SW,225,7.0,8.0,33,0.00,,,0.00,,2013-03-23 09:43:00,
2013-03-23 03:53:00,43.0,18.0,29.69,SW,220,7.0,9.0,36,0.00,,,0.00,,2013-03-23 09:53:00,
2013-03-23 04:03:00,43.0,18.0,29.69,SW,220,7.0,9.0,36,0.00,,,0.00,,2013-03-23 10:03:00,
2013-03-23 04:13:00,43.0,18.0,29.69,SW,220,7.0,9.0,36,0.00,,,0.00,,2013-03-23 10:13:00,
2013-03-23 04:23:00,43.0,15.0,29.68,WSW,242,6.0,8.0,32,0.00,,,0.00,,2013-03-23 10:23:00,
2013-03-23 04:33:00,43.0,15.0,29.68,WSW,242,6.0,8.0,32,0.00,,,0.00,,2013-03-23 10:33:00,
2013-03-23 04:43:00,43.0,15.0,29.68,WSW,242,6.0,8.0,32,0.00,,,0.00,,2013-03-23 10:43:00,
2013-03-23 04:52:00,40.0,10.0,29.68,West,281,1.0,6.0,29,0.00,,,0.00,,2013-03-23 10:52:00,
2013-03-23 05:03:00,37.0,9.0,29.69,WNW,299,2.0,3.0,31,0.00,,,0.00,,2013-03-23 11:03:00,
2013-03-23 05:12:00,37.0,9.0,29.69,WNW,299,2.0,3.0,31,0.00,,,0.00,,2013-03-23 11:12:00,
2013-03-23 05:22:00,37.0,8.0,29.68,WSW,256,6.0,7.0,29,0.00,,,0.00,,2013-03-23 11:22:00,
2013-03-23 05:32:00,38.0,8.0,29.68,West,281,6.0,8.0,28,0.00,,,0.00,,2013-03-23 11:32:00,
2013-03-23 05:42:00,38.0,8.0,29.68,West,281,6.0,8.0,28,0.00,,,0.00,,2013-03-23 11:42:00,
2013-03-23 05:52:00,37.0,6.0,29.68,WSW,242,7.0,8.0,27,0.00,,,0.00,,2013-03-23 11:52:00,
2013-03-23 06:02:00,37.0,6.0,29.68,WSW,242,7.0,8.0,27,0.00,,,0.00,,2013-03-23 12:02:00,
2013-03-23 06:13:00,37.0,6.0,29.68,WSW,242,7.0,8.0,27,0.00,,,0.00,,2013-03-23 12:13:00,
2013-03-23 06:22:00,36.0,4.0,29.69,West,261,5.0,6.0,26,0.00,,,0.00,,2013-03-23 12:22:00,
2013-03-23 06:33:00,35.0,4.0,29.69,West,271,5.0,5.0,26,0.00,,,0.00,,2013-03-23 12:33:00,
2013-03-23 06:43:00,35.0,4.0,29.69,West,271,5.0,5.0,26,0.00,,,0.00,,2013-03-23 12:43:00,
2013-03-23 06:53:00,36.0,6.0,29.70,NW,310,7.0,10.0,28,0.00,,,0.00,,2013-03-23 12:53:00,
2013-03-23 07:02:00,37.0,7.0,29.71,NW,321,8.0,12.0,28,0.00,,,0.00,,2013-03-23 13:02:00,
2013-03-23 07:12:00,37.0,7.0,29.71,NW,321,8.0,12.0,28,0.00,,,0.00,,2013-03-23 13:12:00,
2013-03-23 07:23:00,35.0,7.0,29.72,NW,314,14.0,18.0,31,0.00,,,0.00,,2013-03-23 13:23:00,
2013-03-23 07:32:00,35.0,8.0,29.73,NW,315,10.0,17.0,32,0.00,,,0.00,,2013-03-23 13:32:00,
2013-03-23 07:42:00,35.0,8.0,29.73,NW,315,10.0,17.0,32,0.00,,,0.00,,2013-03-23 13:42:00,
2013-03-23 07:53:00,35.0,8.0,29.73,WNW,290,10.0,12.0,32,0.00,,,0.00,,2013-03-23 13:53:00,
2013-03-23 08:03:00,35.0,7.0,29.73,WNW,299,13.0,21.0,31,0.00,,,0.00,,2013-03-23 14:03:00,
2013-03-23 08:12:00,35.0,7.0,29.73,WNW,299,13.0,21.0,31,0.00,,,0.00,,2013-03-23 14:12:00,
2013-03-23 08:22:00,35.0,7.0,29.74,WNW,300,14.0,22.0,31,0.00,,,0.00,,2013-03-23 14:22:00,
2013-03-23 08:32:00,35.0,7.0,29.74,NW,310,15.0,21.0,30,0.00,,,0.00,,2013-03-23 14:32:00,
2013-03-23 08:42:00,35.0,7.0,29.74,NW,310,15.0,21.0,30,0.00,,,0.00,,2013-03-23 14:42:00,
2013-03-23 08:53:00,35.0,6.0,29.75,NW,319,18.0,24.0,29,0.00,,,0.00,,2013-03-23 14:53:00,
2013-03-23 09:03:00,36.0,7.0,29.76,WNW,302,14.0,23.0,29,0.00,,,0.00,,2013-03-23 15:03:00,
2013-03-23 09:12:00,36.0,7.0,29.76,WNW,302,14.0,23.0,29,0.00,,,0.00,,2013-03-23 15:12:00,
2013-03-23 09:22:00,37.0,6.0,29.77,NW,311,13.0,21.0,27,0.00,,,0.00,,2013-03-23 15:22:00,
2013-03-23 09:33:00,37.0,6.0,29.76,NW,317,14.0,21.0,27,0.00,,,0.00,,2013-03-23 15:33:00,
2013-03-23 09:43:00,37.0,6.0,29.76,NW,317,14.0,21.0,27,0.00,,,0.00,,2013-03-23 15:43:00,
2013-03-23 09:53:00,37.0,6.0,29.76,NNW,328,18.0,24.0,27,0.00,,,0.00,,2013-03-23 15:53:00,
2013-03-23 10:03:00,37.0,6.0,29.76,NNW,328,18.0,24.0,27,0.00,,,0.00,,2013-03-23 16:03:00,
2013-03-23 10:13:00,37.0,6.0,29.76,NNW,328,18.0,24.0,27,0.00,,,0.00,,2013-03-23 16:13:00,
2013-03-23 10:23:00,38.0,5.0,29.78,NW,315,16.0,21.0,25,0.00,,,0.00,,2013-03-23 16:23:00,
2013-03-23 10:32:00,39.0,6.0,29.77,NW,312,15.0,23.0,25,0.00,,,0.00,,2013-03-23 16:32:00,
2013-03-23 10:43:00,39.0,6.0,29.77,NW,312,15.0,23.0,25,0.00,,,0.00,,2013-03-23 16:43:00,
2013-03-23 10:53:00,39.0,5.0,29.77,NNW,329,20.0,24.0,24,0.01,,,0.01,,2013-03-23 16:53:00,
2013-03-23 11:02:00,39.0,4.0,29.78,NW,315,17.0,25.0,23,0.01,,,0.01,,2013-03-23 17:02:00,
2013-03-23 11:12:00,39.0,4.0,29.78,NW,315,17.0,25.0,23,0.01,,,0.01,,2013-03-23 17:12:00,
2013-03-23 11:22:00,40.0,5.0,29.78,NW,315,16.0,25.0,23,0.01,,,0.01,,2013-03-23 17:22:00,
2013-03-23 11:32:00,41.0,5.0,29.78,WNW,299,18.0,23.0,22,0.01,,,0.01,,2013-03-23 17:32:00,
2013-03-23 11:42:00,41.0,5.0,29.78,WNW,299,18.0,23.0,22,0.01,,,0.01,,2013-03-23 17:42:00,
2013-03-23 11:53:00,41.0,4.0,29.78,NW,307,17.0,22.0,21,0.00,,,0.01,,2013-03-23 17:53:00,
2013-03-23 12:03:00,41.0,4.0,29.78,NW,311,16.0,28.0,21,0.00,,,0.01,,2013-03-23 18:03:00,
2013-03-23 12:12:00,41.0,4.0,29.78,NW,311,16.0,28.0,21,0.00,,,0.01,,2013-03-23 18:12:00,
2013-03-23 12:22:00,43.0,5.0,29.79,NW,306,14.0,20.0,20,0.00,,,0.01,,2013-03-23 18:22:00,
2013-03-23 12:32:00,42.0,4.0,29.79,NW,309,17.0,25.0,20,0.00,,,0.01,,2013-03-23 18:32:00,
2013-03-23 12:42:00,42.0,4.0,29.79,NW,309,17.0,25.0,20,0.00,,,0.01,,2013-03-23 18:42:00,
2013-03-23 12:53:00,42.0,5.0,29.80,NW,308,18.0,25.0,21,0.00,,,0.01,,2013-03-23 18:53:00,
2013-03-23 13:03:00,42.0,5.0,29.80,NW,308,18.0,25.0,21,0.00,,,0.01,,2013-03-23 19:03:00,
2013-03-23 13:12:00,42.0,5.0,29.80,NW,308,18.0,25.0,21,0.00,,,0.01,,2013-03-23 19:12:00,
2013-03-23 13:22:00,42.0,4.0,29.81,NW,323,16.0,22.0,20,0.01,,,0.02,,2013-03-23 19:22:00,
2013-03-23 13:32:00,42.0,4.0,29.81,NW,323,16.0,22.0,20,0.01,,,0.02,,2013-03-23 19:32:00,
2013-03-23 13:42:00,42.0,4.0,29.81,NW,323,16.0,22.0,20,0.01,,,0.02,,2013-03-23 19:42:00,
2013-03-23 13:52:00,42.0,4.0,29.82,NW,309,16.0,24.0,20,0.00,,,0.02,,2013-03-23 19:52:00,
2013-03-23 14:03:00,43.0,1.0,29.81,NNW,330,19.0,26.0,17,0.00,,,0.02,,2013-03-23 20:03:00,
2013-03-23 14:13:00,43.0,1.0,29.81,NNW,330,19.0,26.0,17,0.00,,,0.02,,2013-03-23 20:13:00,
2013-03-23 14:22:00,44.0,1.0,29.82,NW,315,14.0,29.0,16,0.00,,,0.02,,2013-03-23 20:22:00,
2013-03-23 14:32:00,43.0,-3.0,29.82,NW,305,14.0,28.0,14,0.03,,,0.05,,2013-03-23 20:32:00,
2013-03-23 14:42:00,43.0,-3.0,29.82,NW,305,14.0,28.0,14,0.03,,,0.05,,2013-03-23 20:42:00,
2013-03-23 14:52:00,43.0,-6.0,29.83,NNW,328,16.0,23.0,12,0.03,,,0.05,,2013-03-23 20:52:00,
2013-03-23 15:02:00,43.0,-6.0,29.83,NNW,328,16.0,23.0,12,0.03,,,0.05,,2013-03-23 21:02:00,
2013-03-23 15:12:00,43.0,-6.0,29.83,NNW,328,16.0,23.0,12,0.03,,,0.05,,2013-03-23 21:12:00,
2013-03-23 15:22:00,42.0,-11.0,29.83,NW,317,17.0,23.0,10,0.03,,,0.05,,2013-03-23 21:22:00,
2013-03-23 15:33:00,42.0,-9.0,29.84,NNW,331,13.0,22.0,11,0.00,,,0.05,,2013-03-23 21:33:00,
2013-03-23 15:43:00,42.0,-9.0,29.84,NNW,331,13.0,22.0,11,0.00,,,0.05,,2013-03-23 21:43:00,
2013-03-23 15:54:00,42.0,-9.0,29.84,NW,322,17.0,21.0,11,0.00,,,0.05,,2013-03-23 21:54:00,
2013-03-23 16:02:00,43.0,-8.0,29.84,NNW,331,14.0,22.0,11,0.00,,,0.05,,2013-03-23 22:02:00,
2013-03-23 16:13:00,43.0,-8.0,29.84,NNW,331,14.0,22.0,11,0.00,,,0.05,,2013-03-23 22:13:00,
2013-03-23 16:23:00,42.0,-9.0,29.84,WNW,297,17.0,25.0,11,0.00,,,0.05,,2013-03-23 22:23:00,
2013-03-23 16:33:00,42.0,-11.0,29.84,NW,322,16.0,23.0,10,0.00,,,0.05,,2013-03-23 22:33:00,
2013-03-23 16:42:00,42.0,-11.0,29.84,NW,322,16.0,23.0,10,0.00,,,0.05,,2013-03-23 22:42:00,
2013-03-23 17:02:00,42.0,-11.0,29.85,WNW,303,18.0,22.0,10,0.00,,,0.05,,2013-03-23 23:02:00,
2013-03-23 17:12:00,42.0,-11.0,29.85,WNW,303,18.0,22.0,10,0.00,,,0.05,,2013-03-23 23:12:00,
2013-03-23 17:23:00,42.0,-9.0,29.86,WNW,291,13.0,20.0,11,0.00,,,0.05,,2013-03-23 23:23:00,
2013-03-23 17:33:00,41.0,-9.0,29.86,NW,319,18.0,23.0,11,0.00,,,0.05,,2013-03-23 23:33:00,
2013-03-23 17:43:00,41.0,-9.0,29.86,NW,319,18.0,23.0,11,0.00,,,0.05,,2013-03-23 23:43:00,
2013-03-23 17:52:00,41.0,-9.0,29.87,WNW,292,16.0,22.0,11,0.00,,,0.05,,2013-03-23 23:52:00,
2013-03-23 18:02:00,41.0,-9.0,29.87,WNW,292,16.0,22.0,11,0.00,,,0.05,,2013-03-24 00:02:00,
2013-03-23 18:12:00,41.0,-9.0,29.87,WNW,292,16.0,22.0,11,0.00,,,0.05,,2013-03-24 00:12:00,
2013-03-23 18:22:00,40.0,-10.0,29.88,NNW,329,15.0,18.0,11,0.00,,,0.05,,2013-03-24 00:22:00,
2013-03-23 18:33:00,40.0,-10.0,29.88,NW,322,15.0,18.0,11,0.00,,,0.05,,2013-03-24 00:33:00,
2013-03-23 18:42:00,40.0,-10.0,29.88,NW,322,15.0,18.0,11,0.00,,,0.05,,2013-03-24 00:42:00,
2013-03-23 18:52:00,39.0,-9.0,29.89,WNW,302,12.0,18.0,12,0.00,,,0.05,,2013-03-24 00:52:00,
2013-03-23 19:02:00,39.0,-9.0,29.89,WNW,302,12.0,18.0,12,0.00,,,0.05,,2013-03-24 01:02:00,
2013-03-23 19:12:00,39.0,-9.0,29.89,WNW,302,12.0,18.0,12,0.00,,,0.05,,2013-03-24 01:12:00,
2013-03-23 19:22:00,37.0,-8.0,29.90,WNW,296,11.0,18.0,14,0.01,,,0.06,,2013-03-24 01:22:00,
2013-03-23 19:32:00,37.0,-8.0,29.90,WNW,296,11.0,18.0,14,0.01,,,0.06,,2013-03-24 01:32:00,
2013-03-23 19:43:00,37.0,-8.0,29.90,WNW,296,11.0,18.0,14,0.01,,,0.06,,2013-03-24 01:43:00,
2013-03-23 19:53:00,36.0,-9.0,29.92,NW,307,8.0,13.0,14,0.01,,,0.06,,2013-03-24 01:53:00,
2013-03-23 20:02:00,36.0,-9.0,29.92,NW,307,8.0,13.0,14,0.01,,,0.06,,2013-03-24 02:02:00,
2013-03-23 20:12:00,36.0,-9.0,29.92,NW,307,8.0,13.0,14,0.01,,,0.06,,2013-03-24 02:12:00,
2013-03-23 20:22:00,35.0,-8.0,29.93,NW,307,5.0,7.0,15,0.00,,,0.06,,2013-03-24 02:22:00,
2013-03-23 20:32:00,34.0,-9.0,29.94,NW,305,3.0,6.0,15,0.00,,,0.06,,2013-03-24 02:32:00,
2013-03-23 20:42:00,34.0,-9.0,29.94,NW,305,3.0,6.0,15,0.00,,,0.06,,2013-03-24 02:42:00,
2013-03-23 20:52:00,32.0,-10.0,29.94,WNW,292,3.0,5.0,15,0.00,,,0.06,,2013-03-24 02:52:00,
2013-03-23 21:02:00,32.0,-9.0,29.95,West,274,2.0,3.0,16,0.00,,,0.06,,2013-03-24 03:02:00,
2013-03-23 21:12:00,32.0,-9.0,29.95,West,274,2.0,3.0,16,0.00,,,0.06,,2013-03-24 03:12:00,
2013-03-23 21:22:00,30.0,-11.0,29.95,West,270,2.0,3.0,16,0.00,,,0.06,,2013-03-24 03:22:00,
2013-03-23 21:33:00,29.0,-11.0,29.96,West,280,2.0,3.0,16,0.00,,,0.06,,2013-03-24 03:33:00,
2013-03-23 21:42:00,29.0,-11.0,29.96,West,280,2.0,3.0,16,0.00,,,0.06,,2013-03-24 03:42:00,
2013-03-23 21:53:00,28.0,-11.0,29.97,WNW,288,2.0,3.0,17,0.00,,,0.06,,2013-03-24 03:53:00,
2013-03-23 22:02:00,28.0,-11.0,29.97,WNW,292,3.0,3.0,17,0.00,,,0.06,,2013-03-24 04:02:00,
2013-03-23 22:12:00,28.0,-11.0,29.97,WNW,292,3.0,3.0,17,0.00,,,0.06,,2013-03-24 04:12:00,
2013-03-23 22:22:00,26.0,-13.0,29.97,NW,315,1.0,2.0,17,0.00,,,0.06,,2013-03-24 04:22:00,
2013-03-23 22:32:00,25.0,-14.0,29.97,NW,315,0.0,2.0,17,0.00,,,0.06,,2013-03-24 04:32:00,
2013-03-23 22:42:00,25.0,-14.0,29.97,NW,315,0.0,2.0,17,0.00,,,0.06,,2013-03-24 04:42:00,
2013-03-23 22:53:00,25.0,-12.0,29.97,NW,315,1.0,2.0,18,0.00,,,0.06,,2013-03-24 04:53:00,
2013-03-23 23:02:00,25.0,-12.0,29.97,NW,315,1.0,2.0,18,0.00,,,0.06,,2013-03-24 05:02:00,
2013-03-23 23:12:00,25.0,-12.0,29.97,NW,315,1.0,2.0,18,0.00,,,0.06,,2013-03-24 05:12:00,
2013-03-23 23:22:00,24.0,-13.0,29.98,WSW,258,2.0,2.0,18,0.00,,,0.06,,2013-03-24 05:22:00,
2013-03-23 23:32:00,24.0,-12.0,29.98,SW,236,2.0,3.0,19,0.00,,,0.06,,2013-03-24 05:32:00,
2013-03-23 23:43:00,24.0,-12.0,29.98,SW,236,2.0,3.0,19,0.00,,,0.06,,2013-03-24 05:43:00,
2013-03-23 23:52:00,24.0,-11.0,29.98,West,260,2.0,2.0,20,0.00,,,0.06,,2013-03-24 05:52:00,